Time;durP1;ratioP1;P1;durP2;ratioP2;P2;SDS_P1;SDS_P2;PMS_P1;PMS_P2;Temp;Humidity;BMP_temperature;BMP_pressure;BME280_temperature;BME280_humidity;BME280_pressure;Samples;Min_cycle;Max_cycle;Signal;HPM_P1;HPM_P2
2022/03/23 00:00:28;;;;;;;0.00;0.00;;;;;;;;;;4956062;29;20285;-70
2022/03/23 00:02:56;;;;;;;0.00;0.00;;;;;;;;;;4955923;29;20206;-70
2022/03/23 00:05:25;;;;;;;0.00;0.00;;;;;;;;;;4956088;29;20282;-70
2022/03/23 00:07:56;;;;;;;0.10;0.10;;;;;;;;;;4955822;28;20573;-69
2022/03/23 00:10:24;;;;;;;0.00;0.00;;;;;;;;;;4955736;29;20201;-70
2022/03/23 00:12:51;;;;;;;0.10;0.10;;;;;;;;;;4955460;29;20206;-70
2022/03/23 00:15:19;;;;;;;0.00;0.00;;;;;;;;;;4955853;29;20198;-69
2022/03/23 00:17:47;;;;;;;0.00;0.00;;;;;;;;;;4955603;29;20195;-69
2022/03/23 00:20:15;;;;;;;0.00;0.00;;;;;;;;;;4956004;28;20204;-69
2022/03/23 00:22:42;;;;;;;0.07;0.07;;;;;;;;;;4955375;28;20199;-69
2022/03/23 00:25:11;;;;;;;0.00;0.00;;;;;;;;;;4955672;29;20501;-70
2022/03/23 00:27:40;;;;;;;0.00;0.00;;;;;;;;;;4955486;29;20222;-69
2022/03/23 00:30:09;;;;;;;0.40;0.40;;;;;;;;;;4955374;29;20206;-68
2022/03/23 00:32:36;;;;;;;0.00;0.00;;;;;;;;;;4955380;28;20226;-69
2022/03/23 00:35:04;;;;;;;0.00;0.00;;;;;;;;;;4955389;29;20202;-70
2022/03/23 00:37:31;;;;;;;0.00;0.00;;;;;;;;;;4955415;29;20190;-70
2022/03/23 00:39:59;;;;;;;0.00;0.00;;;;;;;;;;4955230;29;20359;-70
2022/03/23 00:42:29;;;;;;;0.10;0.10;;;;;;;;;;4955259;29;20191;-69
2022/03/23 00:44:57;;;;;;;0.00;0.00;;;;;;;;;;4955126;29;20206;-69
2022/03/23 00:47:25;;;;;;;0.00;0.00;;;;;;;;;;4955352;28;20265;-69
2022/03/23 00:49:53;;;;;;;0.00;0.00;;;;;;;;;;4954786;28;20580;-69
2022/03/23 00:52:21;;;;;;;0.00;0.00;;;;;;;;;;4955144;29;20210;-69
2022/03/23 00:54:48;;;;;;;0.33;0.33;;;;;;;;;;4954775;29;20568;-69
2022/03/23 00:57:15;;;;;;;0.00;0.00;;;;;;;;;;4954735;29;20199;-69
2022/03/23 00:59:44;;;;;;;0.00;0.00;;;;;;;;;;4954879;29;20690;-69
2022/03/23 01:02:14;;;;;;;0.00;0.00;;;;;;;;;;4955091;29;20198;-69
2022/03/23 01:04:41;;;;;;;0.00;0.00;;;;;;;;;;4954935;29;20202;-70
2022/03/23 01:07:09;;;;;;;0.00;0.00;;;;;;;;;;4954666;29;20227;-69
2022/03/23 01:09:36;;;;;;;0.00;0.00;;;;;;;;;;4954638;29;20860;-69
2022/03/23 01:12:04;;;;;;;0.00;0.00;;;;;;;;;;4954709;29;20195;-69
2022/03/23 01:14:32;;;;;;;0.10;0.10;;;;;;;;;;4954426;29;20194;-71
2022/03/23 01:17:01;;;;;;;1.27;0.70;;;;;;;;;;4954822;29;20199;-70
2022/03/23 01:19:28;;;;;;;0.00;0.00;;;;;;;;;;4954633;29;20664;-70
2022/03/23 01:21:56;;;;;;;0.00;0.00;;;;;;;;;;4954660;29;20249;-70
2022/03/23 01:24:24;;;;;;;0.00;0.00;;;;;;;;;;4954423;29;20191;-70
2022/03/23 01:26:51;;;;;;;0.17;0.17;;;;;;;;;;4954380;29;20238;-70
2022/03/23 01:29:19;;;;;;;1.23;1.20;;;;;;;;;;4954379;29;20675;-69
2022/03/23 01:31:47;;;;;;;0.00;0.00;;;;;;;;;;4954396;29;20199;-70
2022/03/23 01:34:16;;;;;;;0.67;0.67;;;;;;;;;;4954365;29;20237;-70
2022/03/23 01:36:44;;;;;;;0.77;0.77;;;;;;;;;;4954082;28;20199;-70
2022/03/23 01:39:11;;;;;;;0.00;0.00;;;;;;;;;;4954268;29;20198;-69
2022/03/23 01:41:39;;;;;;;0.00;0.00;;;;;;;;;;4954550;29;20198;-70
2022/03/23 01:44:13;;;;;;;0.00;0.00;;;;;;;;;;4954258;29;20282;-69
2022/03/23 01:46:59;;;;;;;0.00;0.00;;;;;;;;;;4953942;29;20199;-70
2022/03/23 01:49:28;;;;;;;0.00;0.00;;;;;;;;;;4954213;29;20216;-69
2022/03/23 01:51:56;;;;;;;0.00;0.00;;;;;;;;;;4954415;29;20207;-69
2022/03/23 01:54:24;;;;;;;0.00;0.00;;;;;;;;;;4954187;29;20195;-69
2022/03/23 01:56:51;;;;;;;0.00;0.00;;;;;;;;;;4954263;29;20226;-68
2022/03/23 01:59:19;;;;;;;0.00;0.00;;;;;;;;;;4953851;28;20712;-70
2022/03/23 02:01:47;;;;;;;0.00;0.00;;;;;;;;;;4957498;29;20202;-70
2022/03/23 02:04:15;;;;;;;0.10;0.10;;;;;;;;;;4958392;29;20203;-69
2022/03/23 02:06:44;;;;;;;0.00;0.00;;;;;;;;;;4957712;29;20647;-70
2022/03/23 02:09:12;;;;;;;0.00;0.00;;;;;;;;;;4957988;29;20198;-70
2022/03/23 02:11:41;;;;;;;0.77;0.77;;;;;;;;;;4958040;29;20195;-69
2022/03/23 02:14:09;;;;;;;0.00;0.00;;;;;;;;;;4957909;29;20242;-70
2022/03/23 02:16:40;;;;;;;0.00;0.00;;;;;;;;;;4957622;29;20191;-70
2022/03/23 02:19:07;;;;;;;0.00;0.00;;;;;;;;;;4958010;29;20202;-70
2022/03/23 02:21:35;;;;;;;0.00;0.00;;;;;;;;;;4957948;29;20222;-70
2022/03/23 02:24:04;;;;;;;0.10;0.10;;;;;;;;;;4957710;29;20670;-70
2022/03/23 02:26:31;;;;;;;0.00;0.00;;;;;;;;;;4957609;29;20599;-70
2022/03/23 02:28:59;;;;;;;0.00;0.00;;;;;;;;;;4957525;29;20231;-70
2022/03/23 02:31:27;;;;;;;0.00;0.00;;;;;;;;;;4957650;29;20199;-70
2022/03/23 02:33:55;;;;;;;0.00;0.00;;;;;;;;;;4957534;29;20559;-70
2022/03/23 02:36:22;;;;;;;0.00;0.00;;;;;;;;;;4957605;28;20257;-70
2022/03/23 02:38:51;;;;;;;0.00;0.00;;;;;;;;;;4957147;29;20664;-70
2022/03/23 02:41:20;;;;;;;0.00;0.00;;;;;;;;;;4957396;29;20552;-70
2022/03/23 02:43:48;;;;;;;0.53;0.53;;;;;;;;;;4957344;29;20794;-69
2022/03/23 02:46:16;;;;;;;0.00;0.00;;;;;;;;;;4957202;29;20559;-70
2022/03/23 02:48:43;;;;;;;0.00;0.00;;;;;;;;;;4957196;29;20325;-70
2022/03/23 02:51:10;;;;;;;0.00;0.00;;;;;;;;;;4957346;29;20206;-69
2022/03/23 03:02:07;;;;;;;0.00;0.00;;;;;;;;;;4957256;29;20206;-70
2022/03/23 03:04:34;;;;;;;0.00;0.00;;;;;;;;;;4956723;29;20191;-70
2022/03/23 03:07:02;;;;;;;0.00;0.00;;;;;;;;;;4956938;29;20198;-70
2022/03/23 03:09:30;;;;;;;0.00;0.00;;;;;;;;;;4956947;29;20191;-69
2022/03/23 03:11:59;;;;;;;0.00;0.00;;;;;;;;;;4956852;28;20675;-69
2022/03/23 03:14:26;;;;;;;0.00;0.00;;;;;;;;;;4956710;29;20199;-69
2022/03/23 03:16:53;;;;;;;0.00;0.00;;;;;;;;;;4956454;29;20287;-70
2022/03/23 03:19:21;;;;;;;0.03;0.03;;;;;;;;;;4956934;29;20218;-70
2022/03/23 03:21:48;;;;;;;0.00;0.00;;;;;;;;;;4956887;29;20206;-70
2022/03/23 03:24:16;;;;;;;0.00;0.00;;;;;;;;;;4956872;29;20223;-69
2022/03/23 03:26:44;;;;;;;0.00;0.00;;;;;;;;;;4956380;29;20199;-69
2022/03/23 03:29:13;;;;;;;0.20;0.20;;;;;;;;;;4956488;29;20233;-70
2022/03/23 03:31:41;;;;;;;0.00;0.00;;;;;;;;;;4956545;29;20210;-70
2022/03/23 03:34:08;;;;;;;0.00;0.00;;;;;;;;;;4956415;29;20190;-70
2022/03/23 03:36:36;;;;;;;0.00;0.00;;;;;;;;;;4956211;29;20202;-70
2022/03/23 03:39:03;;;;;;;0.00;0.00;;;;;;;;;;4956665;28;20262;-69
2022/03/23 03:41:34;;;;;;;0.00;0.00;;;;;;;;;;4956440;29;20199;-69
2022/03/23 03:44:02;;;;;;;0.00;0.00;;;;;;;;;;4956287;29;20194;-70
2022/03/23 03:46:31;;;;;;;0.00;0.00;;;;;;;;;;4956456;29;20555;-69
2022/03/23 03:48:59;;;;;;;0.00;0.00;;;;;;;;;;4956421;29;20233;-69
2022/03/23 03:51:26;;;;;;;0.20;0.20;;;;;;;;;;4956291;29;20321;-69
2022/03/23 03:53:54;;;;;;;0.00;0.00;;;;;;;;;;4956090;29;20215;-69
2022/03/23 03:56:22;;;;;;;0.00;0.00;;;;;;;;;;4956019;29;20195;-69
2022/03/23 03:58:49;;;;;;;0.00;0.00;;;;;;;;;;4955992;29;20227;-70
2022/03/23 04:01:16;;;;;;;0.00;0.00;;;;;;;;;;4956024;29;20648;-69
2022/03/23 04:03:45;;;;;;;0.00;0.00;;;;;;;;;;4956062;29;20665;-68
2022/03/23 04:06:13;;;;;;;0.00;0.00;;;;;;;;;;4956093;29;20634;-69
2022/03/23 04:08:42;;;;;;;0.00;0.00;;;;;;;;;;4955706;28;20226;-70
2022/03/23 04:11:09;;;;;;;0.30;0.30;;;;;;;;;;4955756;29;20203;-69
2022/03/23 04:13:37;;;;;;;0.00;0.00;;;;;;;;;;4955686;29;20194;-69
2022/03/23 04:16:05;;;;;;;0.00;0.00;;;;;;;;;;4955828;29;20199;-69
2022/03/23 04:18:32;;;;;;;0.00;0.00;;;;;;;;;;4955554;29;20201;-69
2022/03/23 04:21:01;;;;;;;0.00;0.00;;;;;;;;;;4955694;29;20556;-69
2022/03/23 04:23:29;;;;;;;0.43;0.43;;;;;;;;;;4955047;28;20298;-69
2022/03/23 04:25:56;;;;;;;0.20;0.20;;;;;;;;;;4955751;29;20195;-70
2022/03/23 04:28:23;;;;;;;0.00;0.00;;;;;;;;;;4955647;29;20235;-70
2022/03/23 04:30:51;;;;;;;0.00;0.00;;;;;;;;;;4955444;29;20245;-68
2022/03/23 04:33:19;;;;;;;0.00;0.00;;;;;;;;;;4955567;29;20195;-68
2022/03/23 04:35:46;;;;;;;0.00;0.00;;;;;;;;;;4955420;29;20831;-69
2022/03/23 04:38:15;;;;;;;0.00;0.00;;;;;;;;;;4955285;29;20295;-70
2022/03/23 04:40:43;;;;;;;0.00;0.00;;;;;;;;;;4954987;29;20555;-69
2022/03/23 04:43:10;;;;;;;0.00;0.00;;;;;;;;;;4955074;29;20205;-70
2022/03/23 04:45:37;;;;;;;0.00;0.00;;;;;;;;;;4955189;29;20195;-69
2022/03/23 04:48:06;;;;;;;0.00;0.00;;;;;;;;;;4955058;29;20233;-69
2022/03/23 04:50:34;;;;;;;0.10;0.10;;;;;;;;;;4954765;29;20215;-70
2022/03/23 04:53:02;;;;;;;0.00;0.00;;;;;;;;;;4955373;29;20230;-69
2022/03/23 04:55:31;;;;;;;0.07;0.07;;;;;;;;;;4955021;29;20191;-69
2022/03/23 04:58:00;;;;;;;0.30;0.30;;;;;;;;;;4954853;29;20230;-69
2022/03/23 05:00:28;;;;;;;0.00;0.00;;;;;;;;;;4954987;28;20283;-69
2022/03/23 05:02:56;;;;;;;0.00;0.00;;;;;;;;;;4954934;28;20280;-69
2022/03/23 05:05:23;;;;;;;0.00;0.00;;;;;;;;;;4954987;29;20199;-69
2022/03/23 05:07:50;;;;;;;0.00;0.00;;;;;;;;;;4954629;29;20247;-68
2022/03/23 05:10:18;;;;;;;0.40;0.40;;;;;;;;;;4954857;29;20195;-69
2022/03/23 05:12:47;;;;;;;0.40;0.40;;;;;;;;;;4954645;29;20207;-70
2022/03/23 05:15:16;;;;;;;0.00;0.00;;;;;;;;;;4954879;29;20274;-70
2022/03/23 05:17:45;;;;;;;0.00;0.00;;;;;;;;;;4954537;29;20203;-69
2022/03/23 05:20:13;;;;;;;0.00;0.00;;;;;;;;;;4954939;29;20195;-69
2022/03/23 05:22:41;;;;;;;0.00;0.00;;;;;;;;;;4954601;29;20190;-69
2022/03/23 05:25:09;;;;;;;0.00;0.00;;;;;;;;;;4954661;29;20205;-69
2022/03/23 05:27:38;;;;;;;0.00;0.00;;;;;;;;;;4954319;29;20675;-68
2022/03/23 05:30:08;;;;;;;0.00;0.00;;;;;;;;;;4954445;29;20201;-69
2022/03/23 05:32:36;;;;;;;0.00;0.00;;;;;;;;;;4954148;29;20730;-70
2022/03/23 05:35:04;;;;;;;0.00;0.00;;;;;;;;;;4953892;28;20205;-70
2022/03/23 05:37:31;;;;;;;0.00;0.00;;;;;;;;;;4954480;29;20199;-69
2022/03/23 05:39:59;;;;;;;0.00;0.00;;;;;;;;;;4954381;29;20194;-70
2022/03/23 05:42:27;;;;;;;0.40;0.40;;;;;;;;;;4954244;29;20199;-69
2022/03/23 05:44:55;;;;;;;0.00;0.00;;;;;;;;;;4954437;28;20191;-69
2022/03/23 05:47:24;;;;;;;0.00;0.00;;;;;;;;;;4954151;29;20195;-69
2022/03/23 05:49:52;;;;;;;0.00;0.00;;;;;;;;;;4954122;29;20778;-69
2022/03/23 05:52:19;;;;;;;0.10;0.10;;;;;;;;;;4954382;29;20195;-69
2022/03/23 05:54:47;;;;;;;0.00;0.00;;;;;;;;;;4953935;29;20230;-70
2022/03/23 05:57:14;;;;;;;0.00;0.00;;;;;;;;;;4953864;29;20234;-69
2022/03/23 05:59:41;;;;;;;0.00;0.00;;;;;;;;;;4954091;29;20656;-69
2022/03/23 06:02:09;;;;;;;0.00;0.00;;;;;;;;;;4953990;29;20199;-69
2022/03/23 06:04:38;;;;;;;0.03;0.03;;;;;;;;;;4954003;29;20225;-69
2022/03/23 06:07:06;;;;;;;0.00;0.00;;;;;;;;;;4954182;29;20199;-69
2022/03/23 06:09:33;;;;;;;0.00;0.00;;;;;;;;;;4954038;29;20230;-69
2022/03/23 06:12:04;;;;;;;0.00;0.00;;;;;;;;;;4954036;29;20194;-69
2022/03/23 06:14:32;;;;;;;0.00;0.00;;;;;;;;;;4953729;29;20222;-69
2022/03/23 06:17:00;;;;;;;0.20;0.20;;;;;;;;;;4953943;29;20656;-69
2022/03/23 06:19:27;;;;;;;0.00;0.00;;;;;;;;;;4954118;29;20199;-68
2022/03/23 06:21:56;;;;;;;0.10;0.10;;;;;;;;;;4953940;29;20207;-69
2022/03/23 06:24:24;;;;;;;0.00;0.00;;;;;;;;;;4953869;29;20206;-69
2022/03/23 06:26:51;;;;;;;0.00;0.00;;;;;;;;;;4953552;29;20714;-70
2022/03/23 06:29:19;;;;;;;0.20;0.20;;;;;;;;;;4954043;29;20322;-69
2022/03/23 06:31:46;;;;;;;0.20;0.20;;;;;;;;;;4953965;29;20281;-69
2022/03/23 06:34:14;;;;;;;0.93;0.93;;;;;;;;;;4954034;29;20197;-68
2022/03/23 06:36:42;;;;;;;2.23;1.60;;;;;;;;;;4953532;29;20199;-69
2022/03/23 06:39:11;;;;;;;0.00;0.00;;;;;;;;;;4953590;29;20287;-69
2022/03/23 06:41:38;;;;;;;0.00;0.00;;;;;;;;;;4953733;29;20205;-69
2022/03/23 06:44:06;;;;;;;0.13;0.13;;;;;;;;;;4953836;29;20205;-69
2022/03/23 06:46:34;;;;;;;0.00;0.00;;;;;;;;;;4954909;28;20202;-69
2022/03/23 06:49:01;;;;;;;0.00;0.00;;;;;;;;;;4957078;29;20706;-68
2022/03/23 06:51:29;;;;;;;0.00;0.00;;;;;;;;;;4957241;29;20206;-68
2022/03/23 06:53:56;;;;;;;0.00;0.00;;;;;;;;;;4957137;29;20191;-69
2022/03/23 06:56:25;;;;;;;0.00;0.00;;;;;;;;;;4957331;29;20198;-68
2022/03/23 06:58:53;;;;;;;0.00;0.00;;;;;;;;;;4956793;29;20569;-69
2022/03/23 07:01:20;;;;;;;0.00;0.00;;;;;;;;;;4957228;29;20195;-70
2022/03/23 07:03:48;;;;;;;0.00;0.00;;;;;;;;;;4956974;29;20279;-70
2022/03/23 07:06:16;;;;;;;1.07;1.00;;;;;;;;;;4957185;29;20241;-70
2022/03/23 07:11:30;;;;;;;0.00;0.00;;;;;;;;;;4956881;29;20227;-69
2022/03/23 07:13:58;;;;;;;0.00;0.00;;;;;;;;;;4956798;29;20679;-68
2022/03/23 07:16:25;;;;;;;0.00;0.00;;;;;;;;;;4956751;29;20210;-68
2022/03/23 07:18:53;;;;;;;0.43;0.43;;;;;;;;;;4956478;29;20195;-68
2022/03/23 07:21:20;;;;;;;0.73;0.73;;;;;;;;;;4956752;29;20201;-68
2022/03/23 07:23:48;;;;;;;2.00;1.50;;;;;;;;;;4956784;29;20324;-68
2022/03/23 07:26:16;;;;;;;9.90;3.77;;;;;;;;;;4956793;29;20199;-68
2022/03/23 07:28:45;;;;;;;2.90;1.53;;;;;;;;;;4956253;29;20322;-70
2022/03/23 07:31:13;;;;;;;1.73;1.63;;;;;;;;;;4956889;29;20241;-70
2022/03/23 07:33:41;;;;;;;4.07;2.37;;;;;;;;;;4956721;29;20218;-69
2022/03/23 07:36:12;;;;;;;2.33;1.40;;;;;;;;;;4956427;29;20653;-68
2022/03/23 07:38:39;;;;;;;2.00;1.90;;;;;;;;;;4956363;29;20195;-69
2022/03/23 07:41:06;;;;;;;0.00;0.00;;;;;;;;;;4956321;29;20194;-69
2022/03/23 07:43:34;;;;;;;0.97;0.93;;;;;;;;;;4956330;29;20210;-70
2022/03/23 07:46:03;;;;;;;0.20;0.20;;;;;;;;;;4956552;29;20556;-71
2022/03/23 07:48:31;;;;;;;0.43;0.43;;;;;;;;;;4955864;29;20194;-72
2022/03/23 07:50:58;;;;;;;2.30;2.13;;;;;;;;;;4956329;29;20201;-69
2022/03/23 07:53:26;;;;;;;1.50;1.03;;;;;;;;;;4956262;29;20199;-69
2022/03/23 07:55:53;;;;;;;1.50;0.77;;;;;;;;;;4956108;29;20222;-69
2022/03/23 07:58:21;;;;;;;0.00;0.00;;;;;;;;;;4955004;28;20258;-69
2022/03/23 08:00:50;;;;;;;4.27;3.10;;;;;;;;;;4955965;29;20191;-69
2022/03/23 08:03:18;;;;;;;0.30;0.30;;;;;;;;;;4955881;29;20290;-70
2022/03/23 08:05:46;;;;;;;0.60;0.60;;;;;;;;;;4955938;29;20206;-69
2022/03/23 08:08:13;;;;;;;2.40;2.30;;;;;;;;;;4955987;29;20549;-69
2022/03/23 08:10:43;;;;;;;4.47;3.03;;;;;;;;;;4955455;29;20269;-72
2022/03/23 08:13:12;;;;;;;4.30;3.93;;;;;;;;;;4955893;29;20287;-70
2022/03/23 08:15:40;;;;;;;0.93;0.93;;;;;;;;;;4955969;28;20278;-70
2022/03/23 08:18:08;;;;;;;7.43;2.73;;;;;;;;;;4955698;29;20195;-70
2022/03/23 08:20:37;;;;;;;1.40;0.67;;;;;;;;;;4955534;29;20226;-70
2022/03/23 08:23:05;;;;;;;1.10;0.93;;;;;;;;;;4955752;29;20553;-69
2022/03/23 08:25:33;;;;;;;2.83;2.23;;;;;;;;;;4955730;29;20205;-70
2022/03/23 08:28:02;;;;;;;1.03;0.77;;;;;;;;;;4955628;29;20234;-68
2022/03/23 08:30:29;;;;;;;2.07;0.93;;;;;;;;;;4955576;29;20269;-71
2022/03/23 08:32:57;;;;;;;14.33;7.13;;;;;;;;;;4955552;29;20199;-70
2022/03/23 08:35:25;;;;;;;2.00;1.90;;;;;;;;;;4955326;29;20199;-71
2022/03/23 08:37:54;;;;;;;0.27;0.27;;;;;;;;;;4955300;28;20637;-69
2022/03/23 08:40:22;;;;;;;0.03;0.03;;;;;;;;;;4955545;29;20233;-70
2022/03/23 08:42:50;;;;;;;2.60;2.40;;;;;;;;;;4955141;29;20195;-70
2022/03/23 08:45:18;;;;;;;2.00;0.97;;;;;;;;;;4955381;29;20195;-70
2022/03/23 08:47:48;;;;;;;1.53;1.43;;;;;;;;;;4955304;29;20265;-68
2022/03/23 08:50:17;;;;;;;1.17;1.07;;;;;;;;;;4954996;28;20237;-68
2022/03/23 08:52:44;;;;;;;0.00;0.00;;;;;;;;;;4954848;29;20289;-69
2022/03/23 08:55:15;;;;;;;3.30;2.38;;;;;;;;;;4955138;29;20191;-70
2022/03/23 08:57:43;;;;;;;3.90;3.63;;;;;;;;;;4954738;29;20317;-70
2022/03/23 09:00:13;;;;;;;4.25;2.80;;;;;;;;;;4954840;29;20198;-70
2022/03/23 09:02:41;;;;;;;2.22;1.58;;;;;;;;;;4954589;29;20194;-70
2022/03/23 09:05:13;;;;;;;0.00;0.00;;;;;;;;;;4955050;29;20289;-70
2022/03/23 09:07:42;;;;;;;0.63;0.50;;;;;;;;;;4954758;29;20195;-71
2022/03/23 09:10:10;;;;;;;0.73;0.73;;;;;;;;;;4954433;28;20266;-70
2022/03/23 09:12:39;;;;;;;1.85;1.75;;;;;;;;;;4954512;28;20655;-70
2022/03/23 09:15:08;;;;;;;3.67;3.38;;;;;;;;;;4954427;29;20563;-70
2022/03/23 09:17:36;;;;;;;0.82;0.82;;;;;;;;;;4954581;29;20283;-69
2022/03/23 09:20:04;;;;;;;0.80;0.80;;;;;;;;;;4954647;29;20215;-69
2022/03/23 09:22:34;;;;;;;2.63;2.53;;;;;;;;;;4954400;28;20194;-71
2022/03/23 09:25:02;;;;;;;1.48;1.42;;;;;;;;;;4954650;29;20666;-70
2022/03/23 09:27:29;;;;;;;12.95;11.80;;;;;;;;;;4954378;29;20656;-69
2022/03/23 09:29:58;;;;;;;2.72;2.28;;;;;;;;;;4954312;29;20234;-69
2022/03/23 09:32:26;;;;;;;1.23;1.15;;;;;;;;;;4954421;29;20199;-69
2022/03/23 09:34:54;;;;;;;4.38;1.75;;;;;;;;;;4953981;29;20202;-70
2022/03/23 09:40:07;;;;;;;3.58;3.30;;;;;;;;;;4954364;29;20258;-70
2022/03/23 09:42:36;;;;;;;1.83;1.58;;;;;;;;;;4954178;29;20207;-70
2022/03/23 09:45:06;;;;;;;3.38;3.25;;;;;;;;;;4954643;29;20294;-70
2022/03/23 09:47:33;;;;;;;2.33;2.15;;;;;;;;;;4954167;29;20199;-70
2022/03/23 09:50:01;;;;;;;6.63;3.20;;;;;;;;;;4954065;29;20595;-70
2022/03/23 09:52:29;;;;;;;0.63;0.63;;;;;;;;;;4954093;29;20201;-70
2022/03/23 09:54:57;;;;;;;0.63;0.63;;;;;;;;;;4954262;29;20207;-70
2022/03/23 09:57:24;;;;;;;4.22;2.53;;;;;;;;;;4954284;29;20227;-70
2022/03/23 09:59:52;;;;;;;4.32;3.72;;;;;;;;;;4954074;29;20549;-70
2022/03/23 10:02:47;;;;;;;0.75;0.75;;;;;;;;;;4953981;29;20594;-69
2022/03/23 10:05:45;;;;;;;3.22;3.03;;;;;;;;;;4953936;29;20238;-70
2022/03/23 10:08:27;;;;;;;5.20;3.95;;;;;;;;;;4954147;29;20191;-70
2022/03/23 10:11:35;;;;;;;1.98;1.85;;;;;;;;;;4952693;28;20222;-70
2022/03/23 10:14:21;;;;;;;4.80;4.30;;;;;;;;;;4953958;29;20199;-70
2022/03/23 10:17:10;;;;;;;2.53;2.33;;;;;;;;;;4953639;28;20648;-69
2022/03/23 10:19:44;;;;;;;2.10;1.90;;;;;;;;;;4953754;29;20529;-70
2022/03/23 10:22:14;;;;;;;3.95;3.65;;;;;;;;;;4956102;28;20230;-70
2022/03/23 10:24:42;;;;;;;1.98;1.88;;;;;;;;;;4957546;28;20199;-70
2022/03/23 10:27:11;;;;;;;0.90;0.90;;;;;;;;;;4957682;29;20223;-70
2022/03/23 10:29:42;;;;;;;1.33;1.25;;;;;;;;;;4957655;29;20227;-70
2022/03/23 10:32:11;;;;;;;9.88;9.23;;;;;;;;;;4957453;29;20211;-70
2022/03/23 10:34:42;;;;;;;0.93;0.93;;;;;;;;;;4957311;28;20206;-70
2022/03/23 10:37:12;;;;;;;7.88;4.45;;;;;;;;;;4957850;29;20199;-70
2022/03/23 10:39:39;;;;;;;2.95;2.03;;;;;;;;;;4957321;29;20576;-70
2022/03/23 10:42:09;;;;;;;1.67;1.52;;;;;;;;;;4957625;29;20680;-70
2022/03/23 10:44:36;;;;;;;14.23;6.07;;;;;;;;;;4957174;29;20199;-70
2022/03/23 10:47:04;;;;;;;4.45;3.05;;;;;;;;;;4957192;29;20195;-69
2022/03/23 10:49:33;;;;;;;1.08;1.08;;;;;;;;;;4957471;29;20245;-69
2022/03/23 10:52:16;;;;;;;4.65;4.40;;;;;;;;;;4957260;29;20201;-70
2022/03/23 10:54:55;;;;;;;0.43;0.43;;;;;;;;;;4957022;29;20290;-71
2022/03/23 10:57:22;;;;;;;1.92;1.60;;;;;;;;;;4956939;29;20194;-69
2022/03/23 11:00:05;;;;;;;3.55;2.63;;;;;;;;;;4961581;29;20308;-74
2022/03/23 11:02:47;;;;;;;2.22;2.13;;;;;;;;;;4967770;29;20206;-72
2022/03/23 11:05:31;;;;;;;1.85;1.73;;;;;;;;;;4957192;29;20206;-69
2022/03/23 11:08:09;;;;;;;0.55;0.55;;;;;;;;;;4957233;29;20193;-69
2022/03/23 11:16:11;;;;;;;2.22;2.13;;;;;;;;;;4956854;29;20217;-69
2022/03/23 11:18:39;;;;;;;2.78;2.67;;;;;;;;;;4956468;29;20195;-68
2022/03/23 11:21:08;;;;;;;3.03;2.92;;;;;;;;;;4956900;29;20570;-69
2022/03/23 11:23:37;;;;;;;2.25;2.15;;;;;;;;;;4956630;29;20656;-69
2022/03/23 11:26:07;;;;;;;1.48;1.45;;;;;;;;;;4956605;29;20205;-68
2022/03/23 11:28:36;;;;;;;5.95;5.57;;;;;;;;;;4956536;28;20203;-69
2022/03/23 11:31:05;;;;;;;4.95;4.20;;;;;;;;;;4956687;29;20239;-68
2022/03/23 11:33:34;;;;;;;5.85;3.40;;;;;;;;;;4955382;28;20201;-69
2022/03/23 11:36:02;;;;;;;5.72;4.43;;;;;;;;;;4956583;29;20198;-68
2022/03/23 11:38:30;;;;;;;1.85;1.17;;;;;;;;;;4956373;28;20253;-69
2022/03/23 11:40:59;;;;;;;4.75;4.18;;;;;;;;;;4956514;29;20223;-69
2022/03/23 11:43:29;;;;;;;6.03;3.75;;;;;;;;;;4956296;29;20315;-68
2022/03/23 11:45:58;;;;;;;0.03;0.03;;;;;;;;;;4956363;28;20612;-67
2022/03/23 11:48:35;;;;;;;1.67;1.63;;;;;;;;;;4956268;29;20206;-67
2022/03/23 11:51:13;;;;;;;1.35;0.93;;;;;;;;;;4956377;29;20230;-67
2022/03/23 11:53:46;;;;;;;2.88;2.63;;;;;;;;;;4956282;29;20194;-68
2022/03/23 11:56:23;;;;;;;9.63;6.13;;;;;;;;;;4956321;29;20575;-67
2022/03/23 11:58:52;;;;;;;3.47;2.45;;;;;;;;;;4955547;29;20237;-67
2022/03/23 12:01:20;;;;;;;5.22;3.28;;;;;;;;;;4955973;29;20715;-68
2022/03/23 12:03:53;;;;;;;0.15;0.15;;;;;;;;;;4955913;29;20218;-68
2022/03/23 12:06:22;;;;;;;2.08;2.03;;;;;;;;;;4956162;29;20199;-68
2022/03/23 12:08:51;;;;;;;3.72;3.10;;;;;;;;;;4955923;29;20200;-68
2022/03/23 12:11:41;;;;;;;0.55;0.50;;;;;;;;;;4955823;29;20233;-68
2022/03/23 12:14:10;;;;;;;2.17;1.92;;;;;;;;;;4955837;29;20294;-68
2022/03/23 12:16:55;;;;;;;0.85;0.60;;;;;;;;;;4955605;29;20231;-68
2022/03/23 12:19:25;;;;;;;3.50;1.88;;;;;;;;;;4955865;28;20260;-68
2022/03/23 12:21:55;;;;;;;0.93;0.88;;;;;;;;;;4955605;29;20290;-68
2022/03/23 12:24:28;;;;;;;0.05;0.05;;;;;;;;;;4955725;29;20205;-68
2022/03/23 12:26:58;;;;;;;1.17;1.17;;;;;;;;;;4955518;29;20203;-68
2022/03/23 12:29:28;;;;;;;2.22;2.00;;;;;;;;;;4955802;29;20205;-68
2022/03/23 12:32:05;;;;;;;5.50;3.03;;;;;;;;;;4955295;29;20234;-68
2022/03/23 12:34:33;;;;;;;1.48;1.40;;;;;;;;;;4955395;29;20207;-69
2022/03/23 12:37:08;;;;;;;8.77;7.35;;;;;;;;;;4955295;29;20723;-69
2022/03/23 12:39:37;;;;;;;1.20;1.10;;;;;;;;;;4955185;29;20199;-68
2022/03/23 12:42:20;;;;;;;3.03;2.85;;;;;;;;;;4955536;28;20635;-68
2022/03/23 12:44:49;;;;;;;2.20;1.98;;;;;;;;;;4954666;28;20209;-68
2022/03/23 12:47:18;;;;;;;3.95;3.63;;;;;;;;;;4955141;29;20623;-68
2022/03/23 12:58:10;;;;;;;5.00;4.65;;;;;;;;;;4954914;29;20230;-68
2022/03/23 13:00:40;;;;;;;0.68;0.68;;;;;;;;;;4954978;29;20197;-68
2022/03/23 13:03:31;;;;;;;8.43;5.80;;;;;;;;;;4954952;28;20222;-68
2022/03/23 13:06:09;;;;;;;2.38;2.17;;;;;;;;;;4954871;29;20205;-67
2022/03/23 13:08:38;;;;;;;1.42;0.68;;;;;;;;;;4954537;29;20288;-68
2022/03/23 13:11:06;;;;;;;1.05;0.95;;;;;;;;;;4954950;29;20250;-68
2022/03/23 13:13:36;;;;;;;0.98;0.95;;;;;;;;;;4954864;29;20199;-68
2022/03/23 13:16:04;;;;;;;0.13;0.13;;;;;;;;;;4954615;29;20199;-68
2022/03/23 13:18:32;;;;;;;1.23;1.20;;;;;;;;;;4954793;29;20191;-69
2022/03/23 13:21:00;;;;;;;0.35;0.35;;;;;;;;;;4954461;29;20199;-69
2022/03/23 13:23:28;;;;;;;2.88;2.67;;;;;;;;;;4954785;28;20323;-69
2022/03/23 13:26:03;;;;;;;3.55;3.40;;;;;;;;;;4954614;29;20652;-68
2022/03/23 13:28:32;;;;;;;4.13;3.90;;;;;;;;;;4954289;29;20201;-69
2022/03/23 13:31:01;;;;;;;3.67;3.38;;;;;;;;;;4954352;29;20222;-68
2022/03/23 13:33:36;;;;;;;1.65;1.55;;;;;;;;;;4954416;29;20202;-68
2022/03/23 13:36:05;;;;;;;3.30;2.78;;;;;;;;;;4954638;29;20207;-68
2022/03/23 13:38:36;;;;;;;3.00;2.38;;;;;;;;;;4954135;29;20195;-68
2022/03/23 13:43:52;;;;;;;0.00;0.00;;;;;;;;;;4954320;29;20201;-67
2022/03/23 13:46:22;;;;;;;0.93;0.88;;;;;;;;;;4954156;29;20195;-68
2022/03/23 13:48:58;;;;;;;1.50;1.40;;;;;;;;;;4953912;29;20611;-71
2022/03/23 13:51:31;;;;;;;1.10;0.55;;;;;;;;;;4954171;29;20305;-70
2022/03/23 13:54:00;;;;;;;5.03;2.55;;;;;;;;;;4953914;29;20597;-69
2022/03/23 13:56:31;;;;;;;1.65;1.55;;;;;;;;;;4953347;29;20237;-70
2022/03/23 13:59:01;;;;;;;1.90;1.77;;;;;;;;;;4953919;28;20258;-70
2022/03/23 14:01:30;;;;;;;3.72;3.20;;;;;;;;;;4954267;28;20672;-68
2022/03/23 14:04:02;;;;;;;3.92;3.63;;;;;;;;;;4954081;29;20211;-68
2022/03/23 14:06:30;;;;;;;1.42;1.33;;;;;;;;;;4954033;28;20195;-68
2022/03/23 14:08:58;;;;;;;1.90;1.58;;;;;;;;;;4953937;29;20234;-71
2022/03/23 14:14:08;;;;;;;0.00;0.00;;;;;;;;;;4953616;28;20257;-68
2022/03/23 14:16:39;;;;;;;0.47;0.45;;;;;;;;;;4953709;28;20195;-68
2022/03/23 14:19:08;;;;;;;1.27;1.17;;;;;;;;;;4953949;29;20210;-69
2022/03/23 14:21:35;;;;;;;1.52;1.50;;;;;;;;;;4954467;29;20242;-68
2022/03/23 14:24:03;;;;;;;0.20;0.20;;;;;;;;;;4953789;29;20293;-68
2022/03/23 14:26:36;;;;;;;1.70;1.60;;;;;;;;;;4953948;29;20226;-68
2022/03/23 14:29:20;;;;;;;1.42;1.33;;;;;;;;;;4954072;29;20206;-68
2022/03/23 14:31:49;;;;;;;1.55;1.45;;;;;;;;;;4953795;29;20218;-69
2022/03/23 14:34:16;;;;;;;1.08;0.70;;;;;;;;;;4954048;29;20195;-68
2022/03/23 14:36:45;;;;;;;2.95;1.95;;;;;;;;;;4953746;29;20297;-69
2022/03/23 14:39:18;;;;;;;6.63;6.00;;;;;;;;;;4953757;29;20202;-68
2022/03/23 14:41:56;;;;;;;7.03;6.55;;;;;;;;;;4953839;29;20600;-68
2022/03/23 14:44:34;;;;;;;0.55;0.55;;;;;;;;;;4953768;29;20191;-68
2022/03/23 14:47:05;;;;;;;1.85;1.70;;;;;;;;;;4953656;29;20199;-68
2022/03/23 14:49:36;;;;;;;5.88;5.32;;;;;;;;;;4953838;28;20203;-68
2022/03/23 14:52:04;;;;;;;0.28;0.28;;;;;;;;;;4953509;28;20309;-70
2022/03/23 14:54:32;;;;;;;1.00;1.00;;;;;;;;;;4953430;29;20553;-70
2022/03/23 14:56:59;;;;;;;4.57;3.88;;;;;;;;;;4953585;29;20214;-67
2022/03/23 14:59:29;;;;;;;0.75;0.75;;;;;;;;;;4953465;29;20270;-68
2022/03/23 15:01:59;;;;;;;2.72;2.53;;;;;;;;;;4953450;29;20649;-68
2022/03/23 15:04:28;;;;;;;1.88;1.77;;;;;;;;;;4953529;29;20191;-70
2022/03/23 15:15:12;;;;;;;5.90;3.67;;;;;;;;;;4956895;29;20215;-71
2022/03/23 15:17:40;;;;;;;3.05;2.85;;;;;;;;;;4957061;29;20541;-72
2022/03/23 15:20:10;;;;;;;7.13;4.50;;;;;;;;;;4956959;29;20191;-71
2022/03/23 15:22:39;;;;;;;3.95;2.83;;;;;;;;;;4956425;29;20195;-69
2022/03/23 15:25:07;;;;;;;6.68;4.35;;;;;;;;;;4956746;28;20226;-71
2022/03/23 15:27:34;;;;;;;0.63;0.63;;;;;;;;;;4956776;29;20230;-71
2022/03/23 15:30:02;;;;;;;2.03;1.92;;;;;;;;;;4956511;28;20202;-70
2022/03/23 15:32:30;;;;;;;1.38;1.27;;;;;;;;;;4956294;29;20779;-71
2022/03/23 15:34:57;;;;;;;1.70;1.60;;;;;;;;;;4956517;29;20652;-71
2022/03/23 15:37:26;;;;;;;0.22;0.22;;;;;;;;;;4956397;29;20279;-71